createdAt,value
2023-04-14T00:04:53.612Z,4.00
2023-04-14T00:10:21.669Z,3.90
2023-04-14T00:15:49.479Z,3.70
2023-04-14T00:21:17.341Z,3.70
2023-04-14T00:26:45.222Z,3.60
2023-04-14T00:32:13.212Z,3.60
2023-04-14T00:37:41.116Z,3.60
2023-04-14T00:43:09.000Z,3.50
2023-04-14T00:48:37.183Z,3.60
2023-04-14T00:54:08.148Z,3.60
2023-04-14T00:59:37.522Z,3.60
2023-04-14T01:05:05.815Z,3.60
2023-04-14T01:10:42.036Z,3.60
2023-04-14T01:16:29.323Z,3.60
2023-04-14T01:22:04.232Z,3.70
2023-04-14T01:28:30.360Z,3.70
2023-04-14T01:34:11.122Z,3.80
2023-04-14T01:39:53.142Z,3.90
2023-04-14T01:45:37.135Z,4.00
2023-04-14T01:51:07.661Z,3.90
2023-04-14T01:56:40.530Z,3.90
2023-04-14T02:02:10.243Z,4.00
2023-04-14T02:07:41.641Z,4.00
2023-04-14T02:13:12.092Z,4.00
2023-04-14T02:18:42.218Z,4.00
2023-04-14T02:24:10.966Z,4.00
2023-04-14T02:29:43.178Z,3.90
2023-04-14T02:35:23.074Z,3.80
2023-04-14T02:40:51.479Z,3.80
2023-04-14T02:46:25.589Z,3.70
2023-04-14T02:51:55.883Z,3.70
2023-04-14T02:57:26.007Z,3.70
2023-04-14T03:02:55.953Z,3.80
2023-04-14T03:08:25.340Z,3.80
2023-04-14T03:13:56.529Z,3.90
2023-04-14T03:19:28.466Z,3.90
2023-04-14T03:25:02.013Z,3.90
2023-04-14T03:30:34.818Z,3.90
2023-04-14T03:36:04.371Z,3.90
2023-04-14T03:41:36.241Z,3.80
2023-04-14T03:47:09.881Z,3.80
2023-04-14T03:52:41.857Z,3.70
2023-04-14T03:58:12.594Z,3.80
2023-04-14T04:03:43.796Z,3.80
2023-04-14T04:09:15.880Z,3.80
2023-04-14T04:14:44.088Z,3.80
2023-04-14T04:20:15.573Z,3.70
2023-04-14T04:25:54.475Z,3.80
2023-04-14T04:31:34.953Z,3.80
2023-04-14T04:37:03.783Z,3.80
2023-04-14T04:42:31.588Z,3.80
2023-04-14T04:47:59.445Z,3.90
2023-04-14T04:53:27.314Z,4.00
2023-04-14T04:58:55.178Z,4.10
2023-04-14T05:04:22.944Z,3.90
2023-04-14T05:09:50.865Z,4.30
2023-04-14T05:15:18.658Z,4.30
2023-04-14T05:20:46.651Z,4.30
2023-04-14T05:26:38.945Z,4.40
2023-04-14T05:32:04.387Z,4.40
2023-04-14T05:37:35.707Z,4.30
2023-04-14T05:43:04.672Z,4.40
2023-04-14T05:48:33.430Z,4.30
2023-04-14T05:54:01.702Z,4.40
2023-04-14T05:59:29.820Z,4.40
2023-04-14T06:04:59.846Z,4.40
2023-04-14T06:10:27.742Z,4.50
2023-04-14T06:15:56.599Z,4.50
2023-04-14T06:21:24.462Z,4.50
2023-04-14T06:26:52.716Z,4.50
2023-04-14T06:32:21.077Z,4.50
2023-04-14T06:37:49.116Z,4.50
2023-04-14T06:43:18.132Z,4.60
2023-04-14T06:48:46.090Z,4.60
2023-04-14T06:54:13.877Z,4.60
2023-04-14T06:59:41.977Z,4.60
2023-04-14T07:05:10.178Z,4.60
2023-04-14T07:10:38.451Z,5.70
2023-04-14T07:16:10.570Z,4.60
2023-04-14T07:21:39.391Z,4.60
2023-04-14T07:27:07.559Z,4.60
2023-04-14T07:32:37.487Z,4.70
2023-04-14T07:38:05.585Z,4.70
2023-04-14T07:43:37.054Z,4.70
2023-04-14T07:49:04.984Z,4.80
2023-04-14T07:54:32.829Z,4.80
2023-04-14T08:00:01.009Z,4.80
2023-04-14T08:05:28.836Z,4.90
2023-04-14T08:10:56.630Z,4.90
2023-04-14T08:16:25.332Z,4.90
2023-04-14T08:21:53.177Z,4.90
2023-04-14T08:27:21.065Z,5.00
2023-04-14T08:32:49.469Z,5.00
2023-04-14T08:38:17.474Z,5.10
2023-04-14T08:43:55.253Z,5.30
2023-04-14T08:49:45.067Z,5.40
2023-04-14T08:55:14.300Z,5.60
2023-04-14T09:00:42.228Z,5.60
2023-04-14T09:06:10.211Z,5.60
2023-04-14T09:11:38.194Z,5.60
2023-04-14T09:17:06.579Z,5.70
2023-04-14T09:22:34.967Z,5.90
2023-04-14T09:28:03.269Z,6.00
2023-04-14T09:33:31.886Z,6.10
2023-04-14T09:38:59.737Z,6.20
2023-04-14T09:44:28.123Z,6.30
2023-04-14T09:50:03.569Z,6.40
2023-04-14T09:55:31.875Z,6.60
2023-04-14T10:00:59.741Z,6.60
2023-04-14T10:06:27.618Z,6.60
2023-04-14T10:12:13.413Z,6.60
2023-04-14T10:17:42.601Z,6.90
2023-04-14T10:23:11.316Z,7.00
2023-04-14T10:28:55.848Z,7.40
2023-04-14T10:34:24.500Z,7.50
2023-04-14T10:40:08.446Z,7.60
2023-04-14T10:45:56.694Z,7.70
2023-04-14T10:51:36.154Z,7.90
2023-04-14T10:57:15.598Z,7.90
2023-04-14T11:03:12.267Z,8.00
2023-04-14T11:08:58.713Z,8.10
2023-04-14T11:14:53.288Z,8.10
2023-04-14T11:20:24.540Z,8.10
2023-04-14T11:25:53.052Z,8.30
2023-04-14T11:31:23.320Z,8.80
2023-04-14T11:36:51.705Z,9.10
2023-04-14T11:42:19.918Z,9.00
2023-04-14T11:47:59.375Z,8.90
2023-04-14T11:53:27.426Z,9.40
2023-04-14T11:59:05.733Z,9.70
2023-04-14T12:04:33.833Z,9.70
2023-04-14T12:10:05.576Z,9.70
2023-04-14T12:15:42.316Z,9.50
2023-04-14T12:21:13.277Z,9.20
2023-04-14T12:26:44.726Z,9.10
2023-04-14T12:32:13.500Z,9.00
2023-04-14T12:37:50.122Z,9.10
2023-04-14T12:43:37.902Z,9.50
2023-04-14T12:49:05.858Z,10.10
2023-04-14T12:55:20.249Z,10.50
2023-04-14T13:00:51.030Z,10.90
2023-04-14T13:06:21.670Z,11.30
2023-04-14T13:11:49.542Z,11.30
2023-04-14T13:17:17.510Z,11.40
2023-04-14T13:22:48.550Z,11.60
2023-04-14T13:28:17.226Z,11.30
2023-04-14T13:33:45.118Z,10.60
2023-04-14T13:39:14.087Z,9.90
2023-04-14T13:44:42.176Z,9.70
2023-04-14T13:50:11.364Z,9.80
2023-04-14T13:55:39.629Z,9.80
2023-04-14T14:01:15.123Z,10.10
2023-04-14T14:06:46.359Z,10.30
2023-04-14T14:12:14.886Z,10.90
2023-04-14T14:17:43.097Z,11.60
2023-04-14T14:23:12.983Z,12.20
2023-04-14T14:28:40.918Z,13.50
2023-04-14T14:34:09.641Z,14.00
2023-04-14T14:39:37.512Z,14.90
2023-04-14T14:45:06.853Z,13.20
2023-04-14T14:50:35.593Z,11.80
2023-04-14T14:56:06.998Z,10.40
2023-04-14T15:01:35.790Z,9.50
2023-04-14T15:07:03.658Z,9.00
2023-04-14T15:12:32.026Z,8.80
2023-04-14T15:18:01.332Z,8.60
2023-04-14T15:23:29.164Z,8.50
2023-04-14T15:28:57.107Z,8.30
2023-04-14T15:34:25.336Z,8.00
2023-04-14T15:39:56.201Z,8.00
2023-04-14T15:45:24.256Z,7.90
2023-04-14T15:50:52.215Z,7.70
2023-04-14T15:56:25.973Z,7.50
2023-04-14T16:01:58.143Z,7.30
2023-04-14T16:07:33.514Z,7.10
2023-04-14T16:13:02.730Z,6.70
2023-04-14T16:18:30.762Z,6.40
2023-04-14T16:23:58.735Z,6.10
2023-04-14T16:29:27.217Z,6.00
2023-04-14T16:34:56.169Z,5.90
2023-04-14T16:40:24.702Z,5.90
2023-04-14T16:45:52.740Z,6.00
2023-04-14T16:51:22.076Z,6.00
2023-04-14T16:57:16.665Z,5.90
2023-04-14T17:03:07.149Z,5.70
2023-04-14T17:08:37.814Z,5.70
2023-04-14T17:14:06.812Z,5.70
2023-04-14T17:19:34.896Z,5.70
2023-04-14T17:25:06.495Z,5.60
2023-04-14T17:30:37.135Z,5.60
2023-04-14T17:36:23.187Z,5.60
2023-04-14T17:42:01.551Z,5.60
2023-04-14T17:47:31.737Z,5.60
2023-04-14T17:53:04.176Z,5.50
2023-04-14T17:58:32.646Z,5.30
2023-04-14T18:04:03.946Z,3.60
2023-04-14T18:09:32.511Z,5.30
2023-04-14T18:15:00.742Z,5.30
2023-04-14T18:20:28.834Z,5.30
2023-04-14T18:31:32.501Z,5.20
2023-04-14T18:37:02.804Z,5.20
2023-04-14T18:42:31.803Z,5.10
2023-04-14T18:48:04.961Z,5.10
2023-04-14T18:53:35.564Z,5.60
2023-04-14T18:59:03.673Z,5.10
2023-04-14T19:04:31.950Z,5.00
2023-04-14T19:10:05.008Z,5.10
2023-04-14T19:15:33.212Z,5.10
2023-04-14T19:21:03.498Z,5.20
2023-04-14T19:26:31.554Z,5.20
2023-04-14T19:31:59.661Z,5.30
2023-04-14T19:37:28.493Z,5.30
2023-04-14T19:42:56.378Z,5.40
2023-04-14T19:48:28.936Z,5.50
2023-04-14T19:54:01.703Z,5.50
2023-04-14T19:59:39.112Z,5.50
2023-04-14T20:05:07.515Z,5.40
2023-04-14T20:10:43.698Z,5.50
2023-04-14T20:16:14.247Z,5.50
2023-04-14T20:21:42.721Z,5.50
2023-04-14T20:27:11.152Z,5.50
2023-04-14T20:32:44.867Z,5.50
2023-04-14T20:38:31.442Z,5.50
2023-04-14T20:44:04.966Z,5.60
2023-04-14T20:49:32.895Z,5.50
2023-04-14T20:55:02.714Z,3.50
2023-04-14T21:00:32.495Z,5.50
2023-04-14T21:06:02.216Z,5.50
2023-04-14T21:11:44.650Z,5.40
2023-04-14T21:17:12.927Z,5.40
2023-04-14T21:22:42.572Z,5.30
2023-04-14T21:28:25.898Z,5.40
2023-04-14T21:33:54.047Z,5.30
2023-04-14T21:39:28.504Z,5.30
2023-04-14T21:44:59.206Z,5.30
2023-04-14T21:50:28.316Z,5.30
2023-04-14T21:56:10.261Z,5.30
2023-04-14T22:01:42.796Z,5.20
2023-04-14T22:07:10.747Z,5.20
2023-04-14T22:12:44.002Z,5.20
2023-04-14T22:18:13.657Z,5.20
2023-04-14T22:23:45.720Z,5.10
2023-04-14T22:29:13.606Z,5.10
2023-04-14T22:34:41.744Z,5.20
2023-04-14T22:40:10.014Z,5.10
2023-04-14T22:45:42.114Z,5.10
2023-04-14T22:51:09.969Z,5.10
2023-04-14T22:56:37.945Z,5.10
2023-04-14T23:02:07.452Z,5.00
2023-04-14T23:07:35.617Z,5.00
2023-04-14T23:13:03.615Z,5.00
2023-04-14T23:18:33.515Z,5.00
2023-04-14T23:24:01.613Z,5.00
2023-04-14T23:29:29.642Z,5.00
2023-04-14T23:34:57.736Z,5.00
2023-04-14T23:40:31.898Z,4.90
2023-04-14T23:45:59.775Z,4.90
2023-04-14T23:51:28.053Z,4.90
2023-04-14T23:57:09.733Z,4.90
